Time;durP1;ratioP1;P1;durP2;ratioP2;P2;SDS_P1;SDS_P2;PMS_P1;PMS_P2;Temp;Humidity;BMP_temperature;BMP_pressure;BME280_temperature;BME280_humidity;BME280_pressure;Samples;Min_cycle;Max_cycle;Signal;HPM_P1;HPM_P2
2022/04/01 00:00:53;;;;;;;0.20;0.05;;;20.60;99.90;;;;;;4967228;28;20041;-72
2022/04/01 00:03:20;;;;;;;0.70;0.15;;;20.60;99.90;;;;;;4967217;28;20473;-73
2022/04/01 00:05:48;;;;;;;0.30;0.10;;;20.60;99.90;;;;;;4982458;28;20519;-72
2022/04/01 00:08:15;;;;;;;0.60;0.20;;;20.60;99.90;;;;;;4974606;28;20037;-72
2022/04/01 00:10:43;;;;;;;1.10;0.10;;;20.50;99.90;;;;;;4965013;28;20026;-73
2022/04/01 00:13:10;;;;;;;0.20;0.10;;;20.50;99.90;;;;;;4964709;28;20034;-72
2022/04/01 00:15:38;;;;;;;2.58;0.08;;;20.50;99.90;;;;;;4960466;28;20357;-73
2022/04/01 00:18:05;;;;;;;1.80;0.00;;;20.40;99.90;;;;;;4961012;28;20042;-73
2022/04/01 00:20:33;;;;;;;0.10;0.10;;;20.40;99.90;;;;;;4959938;28;20433;-72
2022/04/01 00:23:01;;;;;;;0.15;0.00;;;20.50;99.90;;;;;;4968013;28;20034;-74
2022/04/01 00:25:28;;;;;;;0.52;0.08;;;20.50;99.90;;;;;;4961164;28;20631;-73
2022/04/01 00:31:18;;;;;;;0.63;0.10;;;21.10;99.90;;;;;;5031343;23;20062;-74
2022/04/01 00:33:46;;;;;;;0.40;0.00;;;21.40;99.90;;;;;;4970877;28;20491;-72
2022/04/01 00:36:14;;;;;;;0.05;0.03;;;21.50;99.90;;;;;;4976965;28;20035;-73
2022/04/01 00:38:41;;;;;;;1.17;0.20;;;21.70;99.90;;;;;;4977615;28;20043;-72
2022/04/01 00:41:08;;;;;;;0.93;0.10;;;21.80;99.90;;;;;;4978419;28;20175;-72
2022/04/01 00:43:36;;;;;;;1.20;0.10;;;22.20;99.90;;;;;;4987048;28;20568;-72
2022/04/01 00:46:03;;;;;;;1.20;0.00;;;22.60;99.70;;;;;;4998239;28;20038;-73
2022/04/01 00:48:30;;;;;;;1.25;0.10;;;22.40;99.30;;;;;;4998393;28;20030;-73
2022/04/01 00:51:01;;;;;;;1.73;0.10;;;22.70;99.90;;;;;;4982577;28;20093;-74
2022/04/01 00:53:30;;;;;;;1.20;0.77;;;23.00;99.40;;;;;;4974900;28;20106;-73
2022/04/01 00:55:57;;;;;;;0.20;0.10;;;22.80;99.50;;;;;;4981995;28;20030;-73
2022/04/01 00:58:26;;;;;;;0.30;0.30;;;22.90;99.00;;;;;;4977047;28;20054;-72
2022/04/01 01:00:53;;;;;;;0.50;0.10;;;23.20;98.80;;;;;;4981094;28;20030;-73
2022/04/01 01:03:21;;;;;;;0.70;0.20;;;23.30;98.90;;;;;;4986711;28;20049;-73
2022/04/01 01:05:48;;;;;;;1.55;0.10;;;23.30;98.40;;;;;;4984453;28;20027;-73
2022/04/01 01:08:16;;;;;;;0.55;0.28;;;22.80;98.30;;;;;;4974862;28;20073;-72
2022/04/01 01:10:44;;;;;;;1.08;0.20;;;22.20;98.90;;;;;;4983241;28;20080;-72
2022/04/01 01:13:15;;;;;;;0.30;0.00;;;21.80;99.70;;;;;;4975148;28;20031;-72
2022/04/01 01:15:43;;;;;;;1.85;0.40;;;21.50;99.90;;;;;;4975366;28;20030;-72
2022/04/01 01:18:11;;;;;;;2.35;0.10;;;21.30;99.90;;;;;;4973742;28;20495;-72
2022/04/01 01:20:38;;;;;;;0.10;0.00;;;21.10;99.90;;;;;;4982513;28;20065;-72
2022/04/01 01:23:06;;;;;;;0.73;0.00;;;21.00;99.90;;;;;;4973566;28;20459;-73
2022/04/01 01:25:36;;;;;;;0.95;0.10;;;20.90;99.90;;;;;;4975494;28;20022;-73
2022/04/01 01:28:04;;;;;;;1.05;0.10;;;20.80;99.90;;;;;;4975321;28;20105;-73
2022/04/01 01:30:32;;;;;;;0.70;0.10;;;20.80;99.90;;;;;;4973209;28;20476;-72
2022/04/01 01:33:01;;;;;;;0.08;0.00;;;20.80;99.90;;;;;;4969318;28;20051;-73
2022/04/01 01:35:29;;;;;;;0.00;0.00;;;20.90;99.90;;;;;;4971539;28;20023;-72
2022/04/01 01:37:56;;;;;;;0.00;0.00;;;21.10;99.90;;;;;;4974606;28;20075;-73
2022/04/01 01:40:24;;;;;;;0.93;0.10;;;21.10;99.90;;;;;;4976153;28;20033;-73
2022/04/01 01:42:51;;;;;;;0.80;0.10;;;21.10;99.90;;;;;;4972811;28;20206;-73
2022/04/01 01:45:19;;;;;;;0.08;0.00;;;21.20;99.90;;;;;;4973309;28;20385;-72
2022/04/01 01:47:46;;;;;;;0.17;0.10;;;21.40;99.90;;;;;;4976953;28;20042;-72
2022/04/01 01:55:44;;;;;;;0.65;0.17;;;21.20;99.90;;;;;;4977400;28;20109;-70
2022/04/01 01:58:13;;;;;;;0.10;0.10;;;21.10;99.90;;;;;;4973297;28;20047;-72
2022/04/01 02:00:40;;;;;;;0.10;0.00;;;21.00;99.90;;;;;;4974009;28;20055;-72
2022/04/01 02:03:07;;;;;;;0.55;0.10;;;20.90;99.90;;;;;;4972784;28;20118;-72
2022/04/01 02:05:36;;;;;;;0.52;0.00;;;20.90;99.90;;;;;;4972980;28;20080;-72
2022/04/01 02:08:05;;;;;;;0.05;0.00;;;21.00;99.90;;;;;;4973738;28;20030;-72
2022/04/01 02:10:35;;;;;;;0.10;0.00;;;21.10;99.90;;;;;;4974373;28;20389;-74
2022/04/01 02:13:03;;;;;;;0.08;0.00;;;21.20;99.90;;;;;;4967034;28;21464;-71
2022/04/01 02:15:32;;;;;;;1.95;0.10;;;21.30;99.90;;;;;;4976273;28;20035;-72
2022/04/01 02:18:00;;;;;;;0.80;0.00;;;21.30;99.90;;;;;;4981494;28;20670;-72
2022/04/01 02:20:30;;;;;;;0.28;0.05;;;21.20;99.90;;;;;;4972281;28;20027;-71
2022/04/01 02:22:58;;;;;;;0.85;0.10;;;21.10;99.90;;;;;;4971876;28;20526;-72
2022/04/01 02:25:26;;;;;;;0.00;0.00;;;21.10;99.90;;;;;;4971722;28;20034;-72
2022/04/01 02:27:53;;;;;;;0.30;0.00;;;21.10;99.90;;;;;;4973778;28;20489;-71
2022/04/01 02:30:20;;;;;;;0.88;0.10;;;21.00;99.90;;;;;;4969912;28;20452;-72
2022/04/01 02:32:48;;;;;;;0.60;0.10;;;21.00;99.90;;;;;;4974055;28;20202;-72
2022/04/01 02:35:15;;;;;;;2.83;0.10;;;21.00;99.90;;;;;;4974847;28;20030;-72
2022/04/01 02:37:42;;;;;;;0.60;0.20;;;21.10;99.90;;;;;;4973234;28;20415;-71
2022/04/01 02:40:11;;;;;;;1.83;0.10;;;21.10;99.90;;;;;;4973586;28;20022;-72
2022/04/01 02:42:38;;;;;;;0.40;0.20;;;20.90;99.90;;;;;;4978849;28;20038;-72
2022/04/01 02:45:07;;;;;;;0.30;0.30;;;20.90;99.90;;;;;;4980970;28;20499;-72
2022/04/01 02:47:34;;;;;;;1.58;0.10;;;20.80;99.90;;;;;;4972163;28;20141;-73
2022/04/01 02:50:04;;;;;;;0.63;0.17;;;20.80;99.90;;;;;;4973176;28;20030;-72
2022/04/01 02:52:32;;;;;;;2.53;0.20;;;20.90;99.90;;;;;;4975816;28;20038;-72
2022/04/01 02:55:00;;;;;;;1.08;0.55;;;20.90;99.90;;;;;;4969839;28;20081;-72
2022/04/01 02:57:27;;;;;;;3.00;0.20;;;20.90;99.90;;;;;;4975792;28;20140;-72
2022/04/01 02:59:55;;;;;;;2.10;0.20;;;20.80;99.90;;;;;;4973374;28;20086;-72
2022/04/01 03:02:22;;;;;;;5.38;0.30;;;20.70;99.90;;;;;;4970205;28;20049;-72
2022/04/01 03:04:49;;;;;;;0.77;0.20;;;20.70;99.90;;;;;;4971069;28;20023;-72
2022/04/01 03:07:17;;;;;;;0.35;0.10;;;20.70;99.90;;;;;;4975712;28;20046;-72
2022/04/01 03:09:44;;;;;;;0.28;0.10;;;20.70;99.90;;;;;;4966945;28;20027;-72
2022/04/01 03:12:12;;;;;;;0.00;0.00;;;20.60;99.90;;;;;;4967295;28;20484;-72
2022/04/01 03:14:39;;;;;;;0.63;0.20;;;20.50;99.90;;;;;;4973266;28;20515;-72
2022/04/01 03:17:06;;;;;;;0.43;0.35;;;20.50;99.90;;;;;;4973393;28;20109;-72
2022/04/01 03:19:35;;;;;;;2.35;0.52;;;20.60;99.90;;;;;;4973104;28;20492;-72
2022/04/01 03:22:03;;;;;;;0.10;0.10;;;20.60;99.90;;;;;;4975520;28;20086;-72
2022/04/01 03:24:30;;;;;;;0.43;0.10;;;20.60;99.90;;;;;;4971491;28;20034;-72
2022/04/01 03:26:57;;;;;;;1.55;0.20;;;20.60;99.90;;;;;;4971411;28;20473;-72
2022/04/01 03:29:25;;;;;;;1.80;0.22;;;20.70;99.90;;;;;;4973642;28;20034;-72
2022/04/01 03:31:52;;;;;;;0.25;0.13;;;20.70;99.90;;;;;;4970484;28;20074;-71
2022/04/01 03:34:20;;;;;;;1.85;0.85;;;20.70;99.90;;;;;;4972756;28;20034;-72
2022/04/01 03:36:47;;;;;;;3.47;0.77;;;20.80;99.90;;;;;;4968827;28;20540;-71
2022/04/01 03:39:16;;;;;;;2.83;0.25;;;20.80;99.90;;;;;;4973247;28;20043;-72
2022/04/01 03:41:44;;;;;;;1.08;0.40;;;20.70;99.90;;;;;;4976018;28;20053;-72
2022/04/01 03:44:11;;;;;;;0.98;0.50;;;20.60;99.90;;;;;;4971956;28;20023;-72
2022/04/01 03:47:10;;;;;;;1.60;0.50;;;20.50;99.90;;;;;;4977129;28;20113;-71
2022/04/01 03:49:50;;;;;;;3.13;0.43;;;20.60;99.90;;;;;;4969038;28;20030;-72
2022/04/01 03:52:20;;;;;;;2.38;0.35;;;20.70;99.90;;;;;;4971312;28;20054;-71
2022/04/01 03:54:49;;;;;;;3.63;0.60;;;20.80;99.90;;;;;;4976021;28;20531;-73
2022/04/01 03:57:18;;;;;;;2.38;0.30;;;21.00;99.90;;;;;;4982199;28;20055;-72
2022/04/01 03:59:52;;;;;;;2.20;0.35;;;21.00;99.80;;;;;;4981398;28;20035;-72
2022/04/01 04:02:19;;;;;;;5.60;0.75;;;20.90;99.90;;;;;;4978378;28;20384;-73
2022/04/01 04:04:48;;;;;;;2.95;0.35;;;20.80;99.90;;;;;;4974910;28;20042;-73
2022/04/01 04:07:17;;;;;;;6.00;1.08;;;20.70;99.90;;;;;;4977441;28;20389;-73
2022/04/01 04:09:46;;;;;;;2.67;0.75;;;20.70;99.90;;;;;;4975757;28;20049;-74
2022/04/01 04:12:14;;;;;;;1.40;0.30;;;20.60;99.90;;;;;;4995692;28;20038;-73
2022/04/01 04:14:43;;;;;;;4.28;0.35;;;20.50;99.60;;;;;;4977997;28;20058;-72
2022/04/01 04:17:14;;;;;;;2.78;0.40;;;20.50;99.80;;;;;;4966241;28;20038;-73
2022/04/01 04:19:48;;;;;;;1.77;0.43;;;20.50;99.90;;;;;;4980220;28;20034;-72
2022/04/01 04:22:21;;;;;;;2.63;0.45;;;20.40;99.80;;;;;;4980505;28;20035;-72
2022/04/01 04:24:58;;;;;;;2.25;0.38;;;20.40;99.90;;;;;;4977976;28;20480;-71
2022/04/01 04:27:30;;;;;;;1.80;0.32;;;20.40;99.90;;;;;;4979967;28;20044;-75
2022/04/01 04:30:11;;;;;;;2.88;0.28;;;20.40;99.90;;;;;;4976822;28;20031;-71
2022/04/01 04:32:48;;;;;;;0.57;0.28;;;20.40;99.90;;;;;;4976816;28;20056;-72
2022/04/01 04:35:20;;;;;;;2.42;0.55;;;20.50;99.90;;;;;;4974120;28;20053;-71
2022/04/01 04:37:50;;;;;;;2.85;0.20;;;20.60;99.90;;;;;;4972977;28;20988;-72
2022/04/01 04:40:19;;;;;;;1.70;0.65;;;20.60;99.70;;;;;;4970115;28;20039;-72
2022/04/01 04:42:48;;;;;;;1.90;0.43;;;20.80;99.80;;;;;;4974240;28;20540;-72
2022/04/01 04:45:21;;;;;;;3.08;0.30;;;21.10;99.40;;;;;;4971176;28;20054;-72
2022/04/01 04:47:49;;;;;;;0.98;0.20;;;21.10;99.10;;;;;;4973128;28;20026;-71
2022/04/01 04:50:18;;;;;;;1.40;0.30;;;21.00;99.40;;;;;;4979501;28;20030;-71
2022/04/01 04:52:51;;;;;;;2.00;0.40;;;20.90;99.10;;;;;;4977475;28;20105;-71
2022/04/01 04:55:19;;;;;;;2.10;0.30;;;20.70;99.40;;;;;;4978958;28;20031;-73
2022/04/01 04:57:50;;;;;;;3.03;0.50;;;20.70;99.80;;;;;;4975290;28;20106;-71
2022/04/01 05:00:21;;;;;;;0.77;0.20;;;20.70;99.80;;;;;;4980321;28;21046;-72
2022/04/01 05:03:23;;;;;;;1.73;0.50;;;20.80;99.30;;;;;;4981886;28;20050;-71
2022/04/01 05:05:54;;;;;;;1.60;0.40;;;20.70;99.30;;;;;;4981696;28;20030;-72
2022/04/01 05:08:56;;;;;;;2.95;0.90;;;20.50;99.70;;;;;;4977230;28;20527;-71
2022/04/01 05:11:29;;;;;;;2.15;0.30;;;20.50;99.60;;;;;;4978211;28;20139;-71
2022/04/01 05:14:00;;;;;;;2.42;0.30;;;20.60;99.80;;;;;;4982826;28;20027;-71
2022/04/01 05:16:44;;;;;;;6.10;0.90;;;20.50;99.40;;;;;;4969071;28;20027;-71
2022/04/01 05:19:13;;;;;;;2.45;0.47;;;20.50;99.80;;;;;;4971576;28;20046;-71
2022/04/01 05:21:55;;;;;;;9.10;1.60;;;20.40;99.70;;;;;;4974551;28;20027;-72
2022/04/01 05:24:33;;;;;;;1.90;0.28;;;20.40;99.60;;;;;;4977990;28;20038;-72
2022/04/01 05:27:03;;;;;;;3.30;0.30;;;20.20;99.50;;;;;;4978922;28;20027;-71
2022/04/01 05:29:37;;;;;;;3.45;0.57;;;20.30;99.60;;;;;;4983710;28;20190;-71
2022/04/01 05:32:07;;;;;;;2.38;0.30;;;20.30;99.70;;;;;;4980269;28;20439;-71
2022/04/01 05:34:46;;;;;;;4.15;0.43;;;20.40;99.80;;;;;;4982282;28;20117;-71
2022/04/01 05:37:15;;;;;;;6.90;0.43;;;20.40;99.60;;;;;;4979661;28;20113;-71
2022/04/01 05:39:48;;;;;;;3.50;0.73;;;20.40;99.90;;;;;;4978799;28;20113;-72
2022/04/01 05:42:18;;;;;;;3.05;0.50;;;20.50;99.40;;;;;;4975461;28;20034;-72
2022/04/01 05:44:47;;;;;;;1.63;0.40;;;20.60;99.70;;;;;;4976758;28;20038;-71
2022/04/01 05:47:16;;;;;;;4.00;0.88;;;20.60;99.40;;;;;;4983568;28;20054;-72
2022/04/01 05:49:47;;;;;;;2.90;0.50;;;20.50;99.40;;;;;;4978297;28;20023;-72
2022/04/01 05:52:15;;;;;;;5.55;0.52;;;20.40;99.40;;;;;;4974647;28;20311;-72
2022/04/01 05:54:44;;;;;;;1.00;0.20;;;20.30;99.80;;;;;;4974426;28;20030;-71
2022/04/01 05:57:11;;;;;;;1.52;0.30;;;20.30;99.80;;;;;;4988883;28;20038;-72
2022/04/01 05:59:40;;;;;;;4.63;0.35;;;20.20;99.50;;;;;;4979149;28;20054;-72
2022/04/01 06:02:45;;;;;;;4.07;0.30;;;20.20;99.40;;;;;;4973021;28;20489;-72
2022/04/01 06:05:15;;;;;;;5.55;0.50;;;20.20;99.70;;;;;;4971218;28;20049;-71
2022/04/01 06:08:07;;;;;;;4.88;0.90;;;20.10;99.60;;;;;;4970144;28;20516;-71
2022/04/01 06:10:59;;;;;;;1.95;0.30;;;20.00;99.40;;;;;;4970891;28;20037;-72
2022/04/01 06:13:45;;;;;;;3.50;0.65;;;20.00;99.90;;;;;;4979253;28;20061;-72
2022/04/01 06:16:42;;;;;;;2.97;0.40;;;19.90;99.90;;;;;;4971870;28;20023;-72
2022/04/01 06:19:35;;;;;;;10.52;0.85;;;19.90;99.90;;;;;;4971946;28;20292;-73
2022/04/01 06:22:17;;;;;;;2.80;0.75;;;19.80;99.90;;;;;;4975392;28;20110;-74
2022/04/01 06:24:48;;;;;;;5.90;0.98;;;19.90;99.90;;;;;;4977618;28;20077;-76
2022/04/01 06:27:25;;;;;;;3.95;0.57;;;19.80;99.60;;;;;;4970333;28;20042;-73
2022/04/01 06:30:05;;;;;;;5.93;0.70;;;19.80;99.60;;;;;;4976172;28;20034;-72
2022/04/01 06:32:55;;;;;;;2.25;0.60;;;19.80;99.80;;;;;;4983009;28;20052;-74
2022/04/01 06:35:31;;;;;;;7.75;0.40;;;19.80;99.90;;;;;;4981658;28;20527;-74
2022/04/01 06:38:08;;;;;;;2.60;0.43;;;19.80;99.90;;;;;;4976654;28;20066;-73
2022/04/01 06:40:59;;;;;;;4.97;0.75;;;19.80;99.80;;;;;;4980663;28;20038;-72
2022/04/01 06:43:27;;;;;;;3.67;0.30;;;19.70;99.70;;;;;;4980575;28;20394;-73
2022/04/01 06:45:54;;;;;;;2.78;0.60;;;19.60;99.80;;;;;;4979173;28;20094;-74
2022/04/01 06:48:23;;;;;;;3.95;0.47;;;19.60;99.90;;;;;;4975259;28;20041;-73
2022/04/01 06:50:50;;;;;;;2.50;0.35;;;19.60;99.90;;;;;;4983811;28;20038;-73
2022/04/01 06:53:19;;;;;;;1.92;0.40;;;19.50;99.90;;;;;;4983093;28;20480;-73
2022/04/01 06:55:48;;;;;;;2.97;0.38;;;19.40;99.90;;;;;;4984656;28;20036;-73
2022/04/01 06:58:16;;;;;;;6.55;1.23;;;19.40;99.90;;;;;;4972189;28;20448;-75
2022/04/01 07:00:43;;;;;;;3.80;0.63;;;19.30;99.60;;;;;;4972520;28;20481;-72
2022/04/01 07:03:12;;;;;;;1.90;0.75;;;19.30;99.90;;;;;;4970906;28;20506;-73
2022/04/01 07:05:40;;;;;;;4.47;0.90;;;19.20;99.90;;;;;;4985601;28;20026;-73
2022/04/01 07:08:08;;;;;;;4.68;1.10;;;19.20;99.90;;;;;;4979541;28;20034;-73
2022/04/01 07:10:35;;;;;;;6.28;0.80;;;19.20;99.90;;;;;;4979375;28;20041;-73
2022/04/01 07:13:03;;;;;;;0.55;0.30;;;19.20;99.90;;;;;;4971433;28;20038;-74
2022/04/01 07:15:30;;;;;;;3.55;0.35;;;19.20;99.90;;;;;;4987170;28;20361;-73
2022/04/01 07:17:59;;;;;;;6.60;0.50;;;19.10;99.80;;;;;;4987693;28;20050;-74
2022/04/01 07:20:26;;;;;;;1.90;0.50;;;19.00;99.80;;;;;;4981382;28;20062;-74
2022/04/01 07:23:11;;;;;;;3.63;0.50;;;19.00;99.90;;;;;;4978170;28;20093;-74
2022/04/01 07:28:52;;;;;;;3.90;0.95;;;18.80;99.90;;;;;;4969239;28;20405;-73
2022/04/01 07:34:05;;;;;;;1.17;0.30;;;18.60;99.90;;;;;;4977848;28;20068;-73
2022/04/01 07:36:33;;;;;;;1.58;0.22;;;18.50;99.90;;;;;;4970398;28;20308;-73
2022/04/01 07:39:00;;;;;;;5.55;0.85;;;18.40;99.90;;;;;;4985467;28;20073;-73
2022/04/01 07:41:29;;;;;;;2.00;0.57;;;18.30;99.90;;;;;;4993986;28;20085;-74
2022/04/01 07:43:58;;;;;;;6.72;0.57;;;18.20;99.90;;;;;;4983642;28;20046;-74
2022/04/01 07:46:25;;;;;;;1.20;0.88;;;18.10;99.90;;;;;;4974169;28;20500;-73
2022/04/01 07:48:53;;;;;;;7.93;0.93;;;18.00;99.90;;;;;;4973237;28;20033;-74
2022/04/01 07:51:20;;;;;;;4.68;0.70;;;17.90;99.90;;;;;;4975629;28;20057;-74
2022/04/01 07:53:47;;;;;;;4.07;1.15;;;17.90;99.90;;;;;;4979445;28;20109;-73
2022/04/01 07:56:15;;;;;;;5.88;0.80;;;17.80;99.90;;;;;;4978242;28;20018;-75
2022/04/01 07:58:42;;;;;;;2.08;0.47;;;17.70;99.90;;;;;;4977666;28;20030;-72
2022/04/01 08:01:10;;;;;;;2.08;0.57;;;17.60;99.90;;;;;;4978450;28;20058;-74
2022/04/01 08:03:41;;;;;;;2.67;0.40;;;17.60;99.90;;;;;;4978064;28;20035;-74
2022/04/01 08:06:08;;;;;;;3.88;0.65;;;17.60;99.90;;;;;;4976986;28;20021;-73
2022/04/01 08:08:38;;;;;;;5.63;0.77;;;17.50;99.90;;;;;;4978310;28;20097;-73
2022/04/01 08:11:06;;;;;;;4.65;0.57;;;17.50;99.90;;;;;;4977433;28;20464;-72
2022/04/01 08:13:34;;;;;;;3.60;0.35;;;17.50;99.90;;;;;;4979255;28;20030;-72
2022/04/01 08:16:02;;;;;;;4.32;0.50;;;17.50;99.90;;;;;;4978220;28;20030;-73
2022/04/01 08:18:29;;;;;;;3.65;0.38;;;17.40;99.90;;;;;;4977571;28;20038;-73
2022/04/01 08:20:56;;;;;;;1.60;0.50;;;17.40;99.90;;;;;;4980378;28;20034;-74
2022/04/01 08:23:24;;;;;;;4.18;0.50;;;17.40;99.90;;;;;;4975813;28;20081;-72
2022/04/01 08:25:51;;;;;;;2.92;0.45;;;17.40;99.90;;;;;;4978869;28;20113;-74
2022/04/01 08:28:18;;;;;;;3.42;0.52;;;17.30;99.90;;;;;;4974369;28;20027;-72
2022/04/01 08:30:45;;;;;;;2.47;0.68;;;17.30;99.90;;;;;;4974259;28;20460;-72
2022/04/01 08:33:17;;;;;;;1.95;0.40;;;17.30;99.90;;;;;;4977629;28;20045;-72
2022/04/01 08:35:44;;;;;;;3.40;0.20;;;17.20;99.90;;;;;;4980552;28;20049;-72
2022/04/01 08:38:12;;;;;;;1.52;0.40;;;17.20;99.90;;;;;;4979295;28;20050;-73
2022/04/01 08:40:39;;;;;;;3.45;0.63;;;17.20;99.90;;;;;;4979168;28;20030;-75
2022/04/01 08:43:07;;;;;;;3.22;0.98;;;17.20;99.90;;;;;;4978857;28;20042;-73
2022/04/01 08:45:39;;;;;;;2.33;0.52;;;17.10;99.90;;;;;;4976971;28;20023;-74
2022/04/01 08:48:10;;;;;;;3.58;0.25;;;17.10;99.90;;;;;;4975902;28;20835;-75
2022/04/01 08:50:37;;;;;;;1.73;0.40;;;17.10;99.90;;;;;;4976757;28;20166;-74
2022/04/01 08:53:05;;;;;;;3.67;0.38;;;17.10;99.90;;;;;;4975778;28;20058;-74
2022/04/01 08:55:32;;;;;;;4.45;0.57;;;17.20;99.90;;;;;;4977127;28;20037;-74
2022/04/01 08:58:00;;;;;;;2.40;0.30;;;17.30;99.90;;;;;;4975975;28;20472;-74
2022/04/01 09:00:30;;;;;;;1.48;0.55;;;17.30;99.90;;;;;;4974119;28;20034;-72
2022/04/01 09:03:03;;;;;;;2.30;0.73;;;17.20;99.90;;;;;;4975612;28;20026;-74
2022/04/01 09:05:31;;;;;;;4.57;0.40;;;17.20;99.90;;;;;;4978618;28;20022;-74
2022/04/01 09:08:07;;;;;;;6.53;0.50;;;17.30;99.90;;;;;;4978409;28;20038;-74
2022/04/01 09:11:11;;;;;;;2.35;0.43;;;17.30;99.90;;;;;;4978870;28;20030;-74
2022/04/01 09:13:47;;;;;;;2.80;0.73;;;17.20;99.90;;;;;;4976323;28;20454;-73
2022/04/01 09:16:41;;;;;;;1.50;0.47;;;17.10;99.90;;;;;;4976716;28;20413;-74
2022/04/01 09:19:10;;;;;;;3.25;1.17;;;17.10;99.90;;;;;;4976023;28;20046;-73
2022/04/01 09:21:39;;;;;;;5.05;0.93;;;17.00;99.90;;;;;;4976291;28;20492;-73
2022/04/01 09:24:07;;;;;;;1.65;0.30;;;16.90;99.90;;;;;;4977671;28;20046;-72
2022/04/01 09:26:37;;;;;;;2.33;0.82;;;16.90;99.90;;;;;;4977159;28;20053;-73
2022/04/01 09:29:09;;;;;;;5.20;0.65;;;16.90;99.90;;;;;;4977290;28;20038;-75
2022/04/01 09:31:39;;;;;;;9.68;1.05;;;16.90;99.90;;;;;;4973143;28;20042;-74
2022/04/01 09:34:09;;;;;;;4.90;0.85;;;16.90;99.90;;;;;;4978415;28;20050;-74
2022/04/01 09:36:38;;;;;;;1.05;0.55;;;16.90;99.90;;;;;;4975174;28;20026;-75
2022/04/01 09:39:17;;;;;;;5.50;1.52;;;16.90;99.90;;;;;;4976604;28;20042;-74
2022/04/01 09:41:49;;;;;;;5.90;1.10;;;16.90;99.90;;;;;;4975372;28;20018;-74
2022/04/01 09:44:28;;;;;;;6.10;0.63;;;16.90;99.90;;;;;;4974235;28;20030;-74
2022/04/01 09:47:00;;;;;;;6.72;0.90;;;16.90;99.90;;;;;;4978477;28;20460;-74
2022/04/01 09:49:39;;;;;;;2.67;0.40;;;16.80;99.90;;;;;;4979229;28;20105;-74
2022/04/01 09:52:20;;;;;;;3.08;0.63;;;16.70;99.90;;;;;;4974347;28;20039;-74
2022/04/01 09:54:53;;;;;;;3.30;0.98;;;16.70;99.90;;;;;;4976830;28;20054;-73
2022/04/01 09:57:22;;;;;;;3.72;0.63;;;16.70;99.90;;;;;;4972268;28;20040;-76
2022/04/01 09:59:52;;;;;;;4.28;1.48;;;16.70;99.90;;;;;;4975798;28;20041;-74
2022/04/01 10:02:20;;;;;;;3.67;0.60;;;16.70;99.90;;;;;;4976252;28;20022;-74
2022/04/01 10:04:48;;;;;;;2.40;0.47;;;16.80;99.90;;;;;;4978633;28;20172;-74
2022/04/01 10:07:15;;;;;;;3.10;0.38;;;16.80;99.90;;;;;;4976044;28;20034;-73
2022/04/01 10:09:44;;;;;;;4.22;0.40;;;16.80;99.90;;;;;;4973088;28;20046;-73
2022/04/01 10:12:14;;;;;;;4.35;0.63;;;16.80;99.90;;;;;;4973532;28;20473;-74
2022/04/01 10:14:42;;;;;;;3.55;0.63;;;16.80;99.90;;;;;;4974425;28;20040;-74
2022/04/01 10:17:12;;;;;;;1.83;0.60;;;16.80;99.90;;;;;;4972240;28;20031;-74
2022/04/01 10:19:41;;;;;;;3.35;0.43;;;16.80;99.90;;;;;;4976219;28;20042;-75
2022/04/01 10:22:11;;;;;;;2.22;0.30;;;16.80;99.90;;;;;;4971960;28;20038;-74
2022/04/01 10:25:15;;;;;;;3.17;0.80;;;16.70;99.90;;;;;;4970953;28;20146;-75
2022/04/01 10:27:53;;;;;;;4.55;0.60;;;16.80;99.90;;;;;;4970017;28;20043;-74
2022/04/01 10:30:25;;;;;;;6.90;1.52;;;16.70;99.90;;;;;;4973773;28;20539;-76
2022/04/01 10:32:52;;;;;;;4.78;0.65;;;16.60;99.90;;;;;;4975603;28;20496;-74
2022/04/01 10:35:35;;;;;;;5.53;0.50;;;16.60;99.90;;;;;;4974490;28;20106;-74
2022/04/01 10:38:09;;;;;;;3.75;0.52;;;16.50;99.90;;;;;;4975741;28;20034;-75
2022/04/01 10:40:50;;;;;;;2.13;0.40;;;16.50;99.90;;;;;;4976782;28;20026;-75
2022/04/01 10:43:31;;;;;;;2.22;0.52;;;16.40;99.90;;;;;;4970264;28;20097;-75
2022/04/01 10:46:05;;;;;;;5.18;1.45;;;16.40;99.90;;;;;;4973659;28;20027;-74
2022/04/01 10:51:36;;;;;;;2.47;0.38;;;16.30;99.90;;;;;;4973840;28;20100;-75
2022/04/01 10:54:16;;;;;;;2.55;1.13;;;16.20;99.90;;;;;;4977161;28;20042;-73
2022/04/01 10:56:55;;;;;;;5.00;0.68;;;16.20;99.90;;;;;;4974568;28;20148;-74
2022/04/01 10:59:28;;;;;;;6.85;0.98;;;16.10;99.90;;;;;;4973822;28;20045;-74
2022/04/01 11:01:59;;;;;;;1.90;0.70;;;16.10;99.90;;;;;;4973568;28;20034;-73
2022/04/01 11:04:30;;;;;;;3.60;0.63;;;16.10;99.90;;;;;;4975839;28;20092;-73
2022/04/01 11:07:08;;;;;;;2.75;0.40;;;16.10;99.90;;;;;;4974132;28;20037;-73
2022/04/01 11:09:38;;;;;;;2.58;0.63;;;16.10;99.90;;;;;;4973452;28;20182;-73
2022/04/01 11:12:18;;;;;;;2.30;0.50;;;16.10;99.90;;;;;;4981217;28;20034;-74
2022/04/01 11:15:08;;;;;;;1.23;0.40;;;16.10;99.90;;;;;;4980619;28;20166;-73
2022/04/01 11:17:36;;;;;;;1.88;0.30;;;16.10;99.90;;;;;;4996165;28;20073;-75
2022/04/01 11:20:14;;;;;;;5.60;1.67;;;16.10;99.90;;;;;;4988434;28;20036;-75
2022/04/01 11:22:46;;;;;;;3.25;0.55;;;16.00;99.90;;;;;;4982147;28;20102;-76
2022/04/01 11:25:38;;;;;;;1.55;0.60;;;16.10;99.90;;;;;;4983649;28;20105;-75
2022/04/01 11:28:11;;;;;;;9.65;1.60;;;16.00;99.90;;;;;;4974754;28;20070;-73
2022/04/01 11:30:41;;;;;;;3.50;1.00;;;16.00;99.90;;;;;;4974049;28;20039;-75
2022/04/01 11:33:20;;;;;;;4.13;0.40;;;16.00;99.90;;;;;;4980359;28;20113;-73
2022/04/01 11:35:53;;;;;;;5.88;1.33;;;16.00;99.90;;;;;;4974345;28;20373;-74
2022/04/01 11:38:23;;;;;;;2.13;0.60;;;16.10;99.90;;;;;;4979510;28;20501;-75
2022/04/01 11:40:56;;;;;;;4.57;0.50;;;16.10;99.90;;;;;;4977803;28;20030;-73
2022/04/01 11:43:26;;;;;;;1.38;0.47;;;16.10;99.90;;;;;;4976117;28;20043;-75
2022/04/01 11:45:59;;;;;;;2.75;0.90;;;16.00;99.90;;;;;;4970415;28;20027;-75
2022/04/01 11:48:31;;;;;;;8.60;1.05;;;16.00;99.90;;;;;;4972205;28;20037;-75
2022/04/01 11:51:05;;;;;;;4.20;0.70;;;16.00;99.90;;;;;;4971083;28;20035;-75
2022/04/01 11:53:56;;;;;;;2.28;0.38;;;16.00;99.90;;;;;;4978579;28;20421;-76
2022/04/01 11:56:26;;;;;;;2.15;0.47;;;16.10;99.90;;;;;;4971038;28;20041;-74
2022/04/01 11:58:55;;;;;;;3.95;1.15;;;16.20;99.90;;;;;;4970971;28;20543;-74
2022/04/01 12:01:57;;;;;;;2.70;0.43;;;16.30;99.90;;;;;;4974576;28;20031;-75
2022/04/01 12:04:29;;;;;;;9.27;0.60;;;16.30;99.90;;;;;;4971201;28;20054;-76
2022/04/01 12:09:45;;;;;;;2.53;0.68;;;16.30;99.90;;;;;;4979023;28;20198;-76
2022/04/01 12:12:13;;;;;;;4.95;0.60;;;16.30;99.90;;;;;;4974349;28;20022;-75
2022/04/01 12:14:40;;;;;;;2.25;0.90;;;16.30;99.90;;;;;;4975170;28;20088;-75
2022/04/01 12:17:10;;;;;;;2.38;0.90;;;16.20;99.90;;;;;;4984374;28;20034;-74
2022/04/01 12:19:37;;;;;;;5.95;0.60;;;16.20;99.90;;;;;;4978215;28;20038;-75
2022/04/01 12:22:08;;;;;;;6.88;0.40;;;16.20;99.90;;;;;;4976063;28;20034;-73
2022/04/01 12:24:37;;;;;;;3.30;0.75;;;16.20;99.90;;;;;;4987309;28;20792;-74
2022/04/01 12:27:06;;;;;;;3.63;0.50;;;16.20;99.90;;;;;;4973346;28;20608;-74
2022/04/01 12:29:34;;;;;;;3.72;0.90;;;16.20;99.90;;;;;;4985671;28;20026;-74
2022/04/01 12:32:07;;;;;;;2.92;0.35;;;16.20;99.90;;;;;;4980492;28;20481;-73
2022/04/01 12:34:35;;;;;;;4.07;0.50;;;16.10;99.90;;;;;;4987166;28;20385;-74
2022/04/01 12:37:05;;;;;;;4.30;0.85;;;16.10;99.90;;;;;;4984861;28;20497;-75
2022/04/01 12:39:35;;;;;;;3.15;0.50;;;16.10;99.90;;;;;;4990649;28;20038;-74
2022/04/01 12:42:09;;;;;;;5.85;0.68;;;16.10;99.90;;;;;;4976850;28;20043;-74
2022/04/01 12:44:39;;;;;;;3.10;0.43;;;16.10;99.90;;;;;;4977837;28;20035;-74
2022/04/01 12:47:07;;;;;;;3.47;0.68;;;16.10;99.90;;;;;;4978927;28;20116;-74
2022/04/01 12:49:36;;;;;;;1.35;0.20;;;16.10;99.90;;;;;;4984029;28;20030;-74
2022/04/01 12:52:06;;;;;;;4.57;0.52;;;16.00;99.90;;;;;;4986124;28;20033;-74
2022/04/01 12:54:39;;;;;;;4.75;1.00;;;16.00;99.90;;;;;;4988017;28;20112;-74
2022/04/01 12:57:12;;;;;;;3.40;0.57;;;16.10;99.90;;;;;;4976698;28;20531;-74
2022/04/01 12:59:41;;;;;;;5.50;0.60;;;16.10;99.90;;;;;;4972782;28;20042;-74
2022/04/01 13:02:13;;;;;;;2.78;0.60;;;16.00;99.90;;;;;;4979642;28;20022;-74
2022/04/01 13:04:49;;;;;;;7.57;1.00;;;16.00;99.90;;;;;;4991494;28;20030;-75
2022/04/01 13:07:22;;;;;;;1.35;0.63;;;16.00;99.90;;;;;;4978330;28;20393;-75
2022/04/01 13:10:00;;;;;;;1.67;0.40;;;16.10;99.90;;;;;;4973145;28;20065;-74
2022/04/01 13:12:38;;;;;;;4.82;1.05;;;16.10;99.90;;;;;;4980548;28;20054;-74
2022/04/01 13:15:28;;;;;;;3.65;0.60;;;16.20;99.90;;;;;;4972374;28;20027;-75
2022/04/01 13:17:59;;;;;;;3.17;0.75;;;16.20;99.90;;;;;;4985412;28;20046;-75
2022/04/01 13:20:37;;;;;;;2.90;0.80;;;16.30;99.90;;;;;;4992447;28;20034;-74
2022/04/01 13:23:05;;;;;;;4.43;0.55;;;16.30;99.90;;;;;;4987217;28;20034;-75
2022/04/01 13:25:33;;;;;;;6.05;0.85;;;16.30;99.90;;;;;;4980013;28;20038;-75
2022/04/01 13:28:00;;;;;;;7.82;1.35;;;16.40;99.90;;;;;;4988092;28;20033;-75
2022/04/01 13:30:28;;;;;;;1.85;0.38;;;16.40;99.90;;;;;;4975521;28;20035;-75